Uni-arise — 3FSV7 — position and weather

sailwx.info

Track history (hours):
 
Tides and Currents Weather Stations Pressure Air Temp Water Temp Dewpoint Dewpoint Depression Visibility Wind Speed Wind Dir Waves Ship Positions

Uni-arise

Last reported at 2015-Jul-04 22:33 UTC. Time now 2015-Jul-05 23:11 UTC.
Position N 20°14' E 110°32'.

Length 165 m; draft 5.9 m.

Type: Cargo ship. MMSI: 351608000.

Date/timePositionNaut miles runAvg speedWind from/ knotsBaromVisibWave heightAir tempDewpointWater temp
2015-Jul-04 22:33N 20°14' E 110°32'9 9.3
2015-Jul-04 21:33N 20°11' E 110°23'10 9.7
2015-Jul-04 20:33N 20°10' E 110°13'  
2015-Jul-02 14:33N 20°11' E 110°13'25612.7
2015-Jul-01 18:20N 22°02' E 114°20'2312.7
2015-Jul-01 16:34N 22°20' E 114°05'1110.9
2015-Jul-01 15:33N 22°23' E 113°54'4 3.9
2015-Jul-01 14:33N 22°27' E 113°53'0 0.0
2015-Jul-01 13:29N 22°27' E 113°53'0 0.0
2015-Jul-01 12:29N 22°27' E 113°53'0 0.0
2015-Jul-01 11:29N 22°27' E 113°53'0 0.0
2015-Jul-01 08:29N 22°27' E 113°53'0 0.0
2015-Jul-01 07:29N 22°27' E 113°53'3 2.8
2015-Jul-01 06:33N 22°24' E 113°53'12 6.0
2015-Jul-01 04:34N 22°19' E 114°05'2 2.3
2015-Jul-01 03:32N 22°20' E 114°07'0 0.0
2015-Jul-01 01:20N 22°20' E 114°07'0 0.0
2015-Jul-01 00:29N 22°20' E 114°07'0 0.0
2015-Jun-30 23:18N 22°20' E 114°07'0 0.0
2015-Jun-30 22:12N 22°20' E 114°07'0 0.0
2015-Jun-30 21:33N 22°20' E 114°07'0 0.0
2015-Jun-30 20:33N 22°20' E 114°07'0 0.0
2015-Jun-30 18:29N 22°20' E 114°07'0 0.0
2015-Jun-30 16:33N 22°20' E 114°07'0 0.0
2015-Jun-30 15:26N 22°20' E 114°07'2 2.6
2015-Jun-30 14:33N 22°19' E 114°06'12 9.6
2015-Jun-30 13:21N 22°09' E 114°14'7 8.4
2015-Jun-30 12:33N 22°09' E 114°21'  
2015-Jun-28 00:25N 20°14' E 110°48'1310.0
2015-Jun-27 23:05N 20°14' E 110°34'15 9.7
2015-Jun-27 21:33N 20°10' E 110°19'1110.2
2015-Jun-27 20:31N 20°08' E 110°08'6112.3
2015-Jun-27 15:33N 19°49' E 109°06'8 7.6
2015-Jun-27 14:33N 19°43' E 109°11'1 0.9
2015-Jun-27 13:33N 19°44' E 109°12'0 0.0
2015-Jun-27 12:33N 19°44' E 109°12'0 0.0
2015-Jun-27 11:27N 19°44' E 109°12'0 0.0
2015-Jun-27 10:33N 19°44' E 109°12'0 0.0
2015-Jun-27 09:33N 19°44' E 109°12'0 0.0
2015-Jun-27 08:33N 19°44' E 109°12'0 0.0
2015-Jun-27 07:33N 19°44' E 109°12'0 0.0
2015-Jun-27 06:33N 19°44' E 109°12'0 0.0
2015-Jun-27 05:30N 19°44' E 109°12'0 0.0
2015-Jun-27 04:30N 19°44' E 109°12'0 0.0
2015-Jun-27 03:33N 19°44' E 109°12'4 4.0
2015-Jun-27 02:33N 19°42' E 109°08'5 4.0
2015-Jun-27 01:16N 19°42' E 109°03'0 0.1
2015-Jun-27 00:10N 19°42' E 109°03'0 0.1
2015-Jun-26 23:30N 19°42' E 109°03'0 0.1
2015-Jun-26 22:33N 19°42' E 109°03'0 0.0
2015-Jun-26 21:12N 19°42' E 109°03'0 0.0
2015-Jun-26 19:26N 19°42' E 109°03'9 8.9
2015-Jun-26 18:26N 19°51' E 109°06'6210.4
2015-Jun-26 12:28N 20°10' E 110°09'9 9.7
2015-Jun-26 11:33N 20°12' E 110°18'25213.2
2015-Jun-25 16:33N 22°02' E 114°20'2210.8
2015-Jun-25 14:33N 22°19' E 114°06'2 2.0
2015-Jun-25 13:33N 22°20' E 114°08'0 0.0
2015-Jun-25 12:33N 22°20' E 114°08'0 0.0
2015-Jun-25 10:30N 22°20' E 114°08'0 0.0
2015-Jun-25 09:33N 22°20' E 114°08'0 0.0
2015-Jun-25 08:30N 22°20' E 114°08'0 0.0
2015-Jun-25 07:30N 22°20' E 114°08'0 0.0
2015-Jun-25 06:30N 22°20' E 114°08'0 0.0
2015-Jun-25 05:18N 22°20' E 114°08'0 0.0
2015-Jun-25 04:30N 22°20' E 114°08'0 0.0
2015-Jun-25 01:18N 22°20' E 114°08'0 0.0
2015-Jun-25 00:08N 22°20' E 114°08'1 2.0
2015-Jun-24 23:34N 22°19' E 114°07'  
Track history (hours):
 
Tides and Currents Weather Stations Pressure Air Temp Water Temp Dewpoint Dewpoint Depression Visibility Wind Speed Wind Dir Waves Ship Positions

Uni-arise

Last reported at 2015-Jul-04 22:33 UTC. Time now 2015-Jul-05 23:11 UTC.
Position N 20°14' E 110°32'.

Length 165 m; draft 5.9 m.

Type: Cargo ship. MMSI: 351608000.

Date/timePositionNaut miles runAvg speedWind from/ knotsBaromVisibWave heightAir tempDewpointWater temp
2015-Jul-04 22:33N 20°14' E 110°32'9 9.3
2015-Jul-04 21:33N 20°11' E 110°23'10 9.7
2015-Jul-04 20:33N 20°10' E 110°13'  
2015-Jul-02 14:33N 20°11' E 110°13'25612.7
2015-Jul-01 18:20N 22°02' E 114°20'2312.7
2015-Jul-01 16:34N 22°20' E 114°05'1110.9
2015-Jul-01 15:33N 22°23' E 113°54'4 3.9
2015-Jul-01 14:33N 22°27' E 113°53'0 0.0
2015-Jul-01 13:29N 22°27' E 113°53'0 0.0
2015-Jul-01 12:29N 22°27' E 113°53'0 0.0
2015-Jul-01 11:29N 22°27' E 113°53'0 0.0
2015-Jul-01 08:29N 22°27' E 113°53'0 0.0
2015-Jul-01 07:29N 22°27' E 113°53'3 2.8
2015-Jul-01 06:33N 22°24' E 113°53'12 6.0
2015-Jul-01 04:34N 22°19' E 114°05'2 2.3
2015-Jul-01 03:32N 22°20' E 114°07'0 0.0
2015-Jul-01 01:20N 22°20' E 114°07'0 0.0
2015-Jul-01 00:29N 22°20' E 114°07'0 0.0
2015-Jun-30 23:18N 22°20' E 114°07'0 0.0
2015-Jun-30 22:12N 22°20' E 114°07'0 0.0
2015-Jun-30 21:33N 22°20' E 114°07'0 0.0
2015-Jun-30 20:33N 22°20' E 114°07'0 0.0
2015-Jun-30 18:29N 22°20' E 114°07'0 0.0
2015-Jun-30 16:33N 22°20' E 114°07'0 0.0
2015-Jun-30 15:26N 22°20' E 114°07'2 2.6
2015-Jun-30 14:33N 22°19' E 114°06'12 9.6
2015-Jun-30 13:21N 22°09' E 114°14'7 8.4
2015-Jun-30 12:33N 22°09' E 114°21'  
2015-Jun-28 00:25N 20°14' E 110°48'1310.0
2015-Jun-27 23:05N 20°14' E 110°34'15 9.7
2015-Jun-27 21:33N 20°10' E 110°19'1110.2
2015-Jun-27 20:31N 20°08' E 110°08'6112.3
2015-Jun-27 15:33N 19°49' E 109°06'8 7.6
2015-Jun-27 14:33N 19°43' E 109°11'1 0.9
2015-Jun-27 13:33N 19°44' E 109°12'0 0.0
2015-Jun-27 12:33N 19°44' E 109°12'0 0.0
2015-Jun-27 11:27N 19°44' E 109°12'0 0.0
2015-Jun-27 10:33N 19°44' E 109°12'0 0.0
2015-Jun-27 09:33N 19°44' E 109°12'0 0.0
2015-Jun-27 08:33N 19°44' E 109°12'0 0.0
2015-Jun-27 07:33N 19°44' E 109°12'0 0.0
2015-Jun-27 06:33N 19°44' E 109°12'0 0.0
2015-Jun-27 05:30N 19°44' E 109°12'0 0.0
2015-Jun-27 04:30N 19°44' E 109°12'0 0.0
2015-Jun-27 03:33N 19°44' E 109°12'4 4.0
2015-Jun-27 02:33N 19°42' E 109°08'5 4.0
2015-Jun-27 01:16N 19°42' E 109°03'0 0.1
2015-Jun-27 00:10N 19°42' E 109°03'0 0.1
2015-Jun-26 23:30N 19°42' E 109°03'0 0.1
2015-Jun-26 22:33N 19°42' E 109°03'0 0.0
2015-Jun-26 21:12N 19°42' E 109°03'0 0.0
2015-Jun-26 19:26N 19°42' E 109°03'9 8.9
2015-Jun-26 18:26N 19°51' E 109°06'6210.4
2015-Jun-26 12:28N 20°10' E 110°09'9 9.7
2015-Jun-26 11:33N 20°12' E 110°18'25213.2
2015-Jun-25 16:33N 22°02' E 114°20'2210.8
2015-Jun-25 14:33N 22°19' E 114°06'2 2.0
2015-Jun-25 13:33N 22°20' E 114°08'0 0.0
2015-Jun-25 12:33N 22°20' E 114°08'0 0.0
2015-Jun-25 10:30N 22°20' E 114°08'0 0.0
2015-Jun-25 09:33N 22°20' E 114°08'0 0.0
2015-Jun-25 08:30N 22°20' E 114°08'0 0.0
2015-Jun-25 07:30N 22°20' E 114°08'0 0.0
2015-Jun-25 06:30N 22°20' E 114°08'0 0.0
2015-Jun-25 05:18N 22°20' E 114°08'0 0.0
2015-Jun-25 04:30N 22°20' E 114°08'0 0.0
2015-Jun-25 01:18N 22°20' E 114°08'0 0.0
2015-Jun-25 00:08N 22°20' E 114°08'1 2.0
2015-Jun-24 23:34N 22°19' E 114°07'  

Dump ship's entire track history